Hlavní strana
METAR-TAF:

METAR-TAF

Letiště :

Norimberk, Německo

zeměpisná šířka: 49-30N, zeměpisná délka: 011-03E, výška: 318 m

Aktuální stav počasí

Zpráva byla vytvořena před 8 minutami, v 21:20 UTC
Východní vítr 4 kt, proměnlivý mezi severním a východním
Teplota 17°C
Vlhkost vzduchu 88%
Tlak 1021 hPa
Viditelnost 10 km a více
Žádná oblačnost pod 1500 m, nevyskytují se cumulonimby.

METAR: EDDN 262120Z 09004KT 360V100 CAVOK 17/15 Q1021

Čas: 23:28 (21:28 UTC)

Předpověď počasí

Zpráva byla vytvořena před 4 hodinami a 28 minutami, v 17:00 UTC
Předpověď platná od 26 v 18 UTC do 27 v 18 UTC
Východní vítr 4 kt
Viditelnost 10 km a více
Žádná oblačnost pod 1500 m, nevyskytují se cumulonimby.

TAF: EDDN 261700Z 2618/2718 09004KT CAVOK

Stav a předpovědi počasí z více než 4 000 letišť (zprávy METAR a TAF).

Červené a žluté tečky na mapě představují dostupné meteorologické stanice.

Když kurzor umístíte na tečku, zobrazí se název stanice.

Pak kliknutím zobrazíte stav a předpověď počasí.

Chcete-li změnit mapu, kliknutím na zelené tlačítko se znaménkem +mapu přiblížíte, kliknutím na zelené tlačítko se znaménkem – mapu oddálíte a kliknutím na zelené šipky přejdete na sousední mapy.


METAR-TAF: